Time;durP1;ratioP1;P1;durP2;ratioP2;P2;SDS_P1;SDS_P2;PMS_P1;PMS_P2;Temp;Humidity;BMP_temperature;BMP_pressure;BME280_temperature;BME280_humidity;BME280_pressure;Samples;Min_cycle;Max_cycle;Signal;HPM_P1;HPM_P2
2021/10/10 11:09:54;;;;;;;14.50;7.47;;;;;;;;;;5055932;22;20231;-85
2021/10/10 11:13:07;;;;;;;9.80;6.30;;;;;;;;;;5045357;28;20179;-85
2021/10/10 11:16:31;;;;;;;11.00;6.47;;;;;;;;;;5033726;28;20188;-85
2021/10/10 11:19:35;;;;;;;10.37;6.47;;;;;;;;;;5033661;28;20220;-85
2021/10/10 11:22:40;;;;;;;13.53;6.77;;;;;;;;;;5044336;28;20228;-85
2021/10/10 11:25:47;;;;;;;9.87;6.37;;;;;;;;;;5034060;28;20180;-85
2021/10/10 11:29:00;;;;;;;12.97;6.53;;;;;;;;;;5022045;28;20204;-85
2021/10/10 11:32:04;;;;;;;12.47;7.03;;;;;;;;;;5022330;28;20185;-85
2021/10/10 11:35:08;;;;;;;13.80;6.40;;;;;;;;;;5045133;28;20519;-85
2021/10/10 11:38:12;;;;;;;11.23;7.30;;;;;;;;;;5033442;28;20176;-85
2021/10/10 11:41:16;;;;;;;13.60;6.60;;;;;;;;;;5033158;28;20690;-85
2021/10/10 11:44:33;;;;;;;12.50;7.63;;;;;;;;;;5033338;28;20184;-85
2021/10/10 11:47:37;;;;;;;12.37;6.37;;;;;;;;;;5033149;28;20184;-85
2021/10/10 11:50:41;;;;;;;10.30;6.40;;;;;;;;;;5021521;28;20216;-85
2021/10/10 11:53:46;;;;;;;10.97;6.03;;;;;;;;;;5021460;28;20180;-85
2021/10/10 11:57:10;;;;;;;13.37;7.00;;;;;;;;;;5021629;28;20180;-85
2021/10/10 12:00:18;;;;;;;9.73;6.37;;;;;;;;;;5032905;28;20220;-85
2021/10/10 12:03:24;;;;;;;9.93;6.37;;;;;;;;;;5021452;28;20212;-85
2021/10/10 12:06:28;;;;;;;10.57;6.57;;;;;;;;;;5032914;28;20181;-85
2021/10/10 12:09:33;;;;;;;10.63;7.57;;;;;;;;;;5032309;28;20725;-85
2021/10/10 12:12:37;;;;;;;14.43;6.90;;;;;;;;;;5021371;28;20184;-85
2021/10/10 12:15:41;;;;;;;9.20;6.70;;;;;;;;;;5032454;28;20185;-85
2021/10/10 12:18:45;;;;;;;22.17;7.30;;;;;;;;;;5021156;28;20188;-85
2021/10/10 12:21:49;;;;;;;11.67;6.80;;;;;;;;;;5020992;28;20215;-85
2021/10/10 12:24:54;;;;;;;11.93;6.13;;;;;;;;;;5032172;28;20528;-85
2021/10/10 12:27:58;;;;;;;9.20;6.60;;;;;;;;;;5032492;28;20631;-85
2021/10/10 12:31:02;;;;;;;11.50;6.80;;;;;;;;;;5031880;28;20223;-85
2021/10/10 12:34:10;;;;;;;11.50;6.83;;;;;;;;;;5032560;28;20176;-85
2021/10/10 12:37:19;;;;;;;10.20;6.73;;;;;;;;;;5032233;28;20628;-85
2021/10/10 12:40:35;;;;;;;13.57;6.93;;;;;;;;;;5020337;28;20220;-85
2021/10/10 12:43:42;;;;;;;11.77;6.37;;;;;;;;;;5020222;28;20564;-85
2021/10/10 12:46:56;;;;;;;12.47;6.70;;;;;;;;;;5020313;28;20646;-85
2021/10/10 12:50:00;;;;;;;9.87;6.90;;;;;;;;;;5020381;28;20560;-85
2021/10/10 12:53:04;;;;;;;10.20;6.23;;;;;;;;;;5031767;28;20631;-85
2021/10/10 12:56:28;;;;;;;15.40;7.10;;;;;;;;;;5020428;28;20184;-85
2021/10/10 12:59:35;;;;;;;9.07;6.50;;;;;;;;;;5031685;28;20224;-85
2021/10/10 13:02:42;;;;;;;12.07;6.43;;;;;;;;;;5031022;28;20228;-85
2021/10/10 13:05:46;;;;;;;10.60;6.23;;;;;;;;;;5031781;28;20192;-85
2021/10/10 13:08:55;;;;;;;12.03;6.47;;;;;;;;;;5031249;28;20192;-85
2021/10/10 13:12:03;;;;;;;11.40;6.20;;;;;;;;;;5011323;28;20177;-85
2021/10/10 13:15:08;;;;;;;14.07;7.10;;;;;;;;;;5022876;28;20182;-85
2021/10/10 13:18:13;;;;;;;8.17;6.00;;;;;;;;;;5022926;28;20185;-85
2021/10/10 13:21:17;;;;;;;8.97;6.33;;;;;;;;;;5011138;28;20196;-85
2021/10/10 13:24:23;;;;;;;11.03;6.67;;;;;;;;;;5011345;28;20185;-85
2021/10/10 13:27:27;;;;;;;13.50;6.60;;;;;;;;;;5023102;28;20185;-85
2021/10/10 13:30:31;;;;;;;13.30;6.60;;;;;;;;;;5011019;28;20224;-85
2021/10/10 13:33:36;;;;;;;12.90;7.57;;;;;;;;;;5011212;28;20177;-85
2021/10/10 13:36:41;;;;;;;9.73;6.17;;;;;;;;;;5022418;28;20185;-85
2021/10/10 13:39:45;;;;;;;10.30;6.70;;;;;;;;;;5011192;28;20224;-85
2021/10/10 13:42:49;;;;;;;8.30;6.67;;;;;;;;;;5011087;28;20213;-85
2021/10/10 13:45:57;;;;;;;9.63;7.00;;;;;;;;;;5011283;28;20639;-85
2021/10/10 13:49:02;;;;;;;8.03;5.63;;;;;;;;;;5010831;28;20185;-85
2021/10/10 13:52:06;;;;;;;12.20;5.83;;;;;;;;;;5011055;28;20181;-85
2021/10/10 13:55:12;;;;;;;9.87;6.20;;;;;;;;;;5011109;28;20181;-85
2021/10/10 13:58:18;;;;;;;8.70;5.57;;;;;;;;;;5022219;28;20181;-85
2021/10/10 14:01:23;;;;;;;10.47;6.03;;;;;;;;;;5021609;28;20196;-85
2021/10/10 14:04:27;;;;;;;9.60;5.67;;;;;;;;;;5010712;28;20181;-85
2021/10/10 14:07:30;;;;;;;13.60;6.10;;;;;;;;;;5010380;28;20632;-85
2021/10/10 14:10:36;;;;;;;13.13;5.87;;;;;;;;;;5010115;28;20224;-85
2021/10/10 14:13:40;;;;;;;13.70;6.03;;;;;;;;;;5021857;28;20177;-85
2021/10/10 14:16:45;;;;;;;9.63;6.53;;;;;;;;;;5033528;28;20185;-85
2021/10/10 14:19:49;;;;;;;9.20;5.80;;;;;;;;;;5010872;28;20221;-85
2021/10/10 14:22:53;;;;;;;10.33;6.37;;;;;;;;;;5011159;28;20208;-85
2021/10/10 14:25:57;;;;;;;10.70;6.23;;;;;;;;;;5010938;28;20181;-85
2021/10/10 14:29:02;;;;;;;11.20;6.33;;;;;;;;;;5010650;28;20176;-85
2021/10/10 14:32:06;;;;;;;13.87;5.97;;;;;;;;;;5010317;28;20521;-85
2021/10/10 14:35:12;;;;;;;11.27;5.67;;;;;;;;;;5010330;28;20185;-85
2021/10/10 14:38:17;;;;;;;9.83;5.67;;;;;;;;;;5010530;28;20185;-85
2021/10/10 14:41:34;;;;;;;9.97;5.30;;;;;;;;;;5010071;28;20193;-85
2021/10/10 14:44:51;;;;;;;9.13;5.80;;;;;;;;;;5010384;28;20181;-85
2021/10/10 14:48:08;;;;;;;8.27;5.43;;;;;;;;;;5009903;28;20185;-85
2021/10/10 14:51:11;;;;;;;9.17;6.30;;;;;;;;;;5010105;28;20224;-85
2021/10/10 14:54:16;;;;;;;9.67;5.50;;;;;;;;;;5033119;28;20177;-85
2021/10/10 14:57:24;;;;;;;8.57;5.63;;;;;;;;;;5021514;28;20185;-85
2021/10/10 15:00:29;;;;;;;11.30;5.73;;;;;;;;;;5010382;28;20564;-85
2021/10/10 15:03:32;;;;;;;13.03;6.50;;;;;;;;;;5021064;28;20228;-85
2021/10/10 15:06:37;;;;;;;11.93;6.63;;;;;;;;;;5009964;28;20197;-85
2021/10/10 15:09:41;;;;;;;13.00;6.53;;;;;;;;;;5016371;28;20227;-85
2021/10/10 15:12:47;;;;;;;11.73;6.70;;;;;;;;;;5018641;28;20184;-85
2021/10/10 15:15:50;;;;;;;9.37;6.00;;;;;;;;;;5018484;28;20180;-85
2021/10/10 15:18:55;;;;;;;8.33;5.23;;;;;;;;;;5029809;28;20180;-85
2021/10/10 15:22:03;;;;;;;10.57;5.50;;;;;;;;;;5017689;28;20184;-85
2021/10/10 15:25:08;;;;;;;9.20;5.60;;;;;;;;;;5012865;28;20185;-85
2021/10/10 15:28:12;;;;;;;10.43;5.30;;;;;;;;;;5018026;28;20520;-85
2021/10/10 15:31:17;;;;;;;11.73;5.10;;;;;;;;;;5019358;28;20227;-86
2021/10/10 15:34:21;;;;;;;7.73;4.97;;;;;;;;;;5022641;28;20204;-86
2021/10/10 15:37:25;;;;;;;6.40;4.77;;;;;;;;;;5029468;28;20208;-85
2021/10/10 15:40:29;;;;;;;8.17;5.00;;;;;;;;;;5028853;28;20215;-85
2021/10/10 15:43:36;;;;;;;7.03;4.80;;;;;;;;;;5009097;28;20684;-86
2021/10/10 15:46:40;;;;;;;10.43;5.03;;;;;;;;;;5051232;28;20203;-86
2021/10/10 15:49:44;;;;;;;7.67;4.73;;;;;;;;;;5028647;28;20223;-86
2021/10/10 15:52:50;;;;;;;8.03;4.87;;;;;;;;;;5017629;28;20196;-86
2021/10/10 15:55:54;;;;;;;21.60;6.10;;;;;;;;;;5029408;28;20204;-86
2021/10/10 15:58:58;;;;;;;33.17;6.57;;;;;;;;;;5041133;28;20570;-86
2021/10/10 16:02:03;;;;;;;23.07;5.60;;;;;;;;;;5028949;28;20188;-86
2021/10/10 16:05:08;;;;;;;9.90;4.60;;;;;;;;;;5016903;28;20678;-86
2021/10/10 16:08:12;;;;;;;11.77;5.30;;;;;;;;;;5017257;28;20199;-86
2021/10/10 16:11:16;;;;;;;8.37;4.73;;;;;;;;;;5013669;28;20240;-88
2021/10/10 16:14:21;;;;;;;9.90;5.00;;;;;;;;;;5008299;28;20200;-87
2021/10/10 16:17:25;;;;;;;8.40;4.80;;;;;;;;;;5008328;28;20204;-87
2021/10/10 16:20:29;;;;;;;9.40;4.83;;;;;;;;;;5019581;28;20224;-87
2021/10/10 16:23:33;;;;;;;6.93;4.63;;;;;;;;;;5019684;28;20208;-86
2021/10/10 16:26:37;;;;;;;7.70;4.50;;;;;;;;;;5008416;28;20196;-86
2021/10/10 16:29:41;;;;;;;9.37;4.87;;;;;;;;;;4999829;28;20229;-86
2021/10/10 16:32:51;;;;;;;6.57;4.87;;;;;;;;;;5004644;28;20197;-86
2021/10/10 16:36:04;;;;;;;10.83;5.07;;;;;;;;;;5000104;28;20197;-87
2021/10/10 16:39:11;;;;;;;7.27;4.73;;;;;;;;;;5019239;28;20588;-86
2021/10/10 16:42:17;;;;;;;8.87;5.10;;;;;;;;;;5008025;28;20185;-86
2021/10/10 16:45:21;;;;;;;8.90;5.00;;;;;;;;;;4994215;28;20201;-88
2021/10/10 16:48:26;;;;;;;9.53;5.17;;;;;;;;;;4999244;28;20197;-86
2021/10/10 16:51:31;;;;;;;8.87;5.43;;;;;;;;;;4988857;28;20644;-85
2021/10/10 16:54:36;;;;;;;7.33;4.70;;;;;;;;;;4989686;28;20181;-86
2021/10/10 16:57:40;;;;;;;7.87;4.93;;;;;;;;;;5000723;28;20181;-86
2021/10/10 17:00:44;;;;;;;7.23;5.00;;;;;;;;;;5014658;28;20225;-86
2021/10/10 17:03:48;;;;;;;8.30;5.23;;;;;;;;;;4988341;28;20221;-86
2021/10/10 17:06:52;;;;;;;11.93;5.63;;;;;;;;;;4999571;28;20209;-86
2021/10/10 17:09:57;;;;;;;9.03;4.70;;;;;;;;;;4996730;28;20232;-86
2021/10/10 17:13:02;;;;;;;10.13;5.03;;;;;;;;;;5014756;28;20192;-86
2021/10/10 17:16:07;;;;;;;10.40;5.37;;;;;;;;;;5028861;28;20540;-86
2021/10/10 17:19:12;;;;;;;7.50;5.17;;;;;;;;;;5028711;28;20184;-86
2021/10/10 17:22:18;;;;;;;8.93;5.20;;;;;;;;;;5039311;28;20188;-85
2021/10/10 17:25:25;;;;;;;7.20;5.10;;;;;;;;;;5039065;28;20188;-85
2021/10/10 17:28:29;;;;;;;7.10;5.17;;;;;;;;;;5007049;28;20197;-86
2021/10/10 17:31:34;;;;;;;11.10;5.43;;;;;;;;;;4997114;28;20197;-85
2021/10/10 17:34:38;;;;;;;8.47;5.23;;;;;;;;;;5007496;28;20521;-86
2021/10/10 17:37:42;;;;;;;8.30;6.00;;;;;;;;;;5007890;28;20706;-84
2021/10/10 17:40:47;;;;;;;12.67;5.47;;;;;;;;;;5034471;28;20215;-86
2021/10/10 17:43:51;;;;;;;9.97;5.93;;;;;;;;;;5015902;28;20571;-86
2021/10/10 17:46:56;;;;;;;8.43;5.57;;;;;;;;;;4996102;28;20185;-86
2021/10/10 17:50:00;;;;;;;10.13;6.07;;;;;;;;;;4996061;28;20224;-86
2021/10/10 17:53:04;;;;;;;9.83;5.83;;;;;;;;;;5007115;28;20656;-86
2021/10/10 17:56:12;;;;;;;8.97;5.67;;;;;;;;;;5009141;28;20185;-86
2021/10/10 18:00:03;;;;;;;11.53;5.60;;;;;;;;;;5007204;28;20225;-86
2021/10/10 18:03:08;;;;;;;11.50;5.87;;;;;;;;;;5043073;28;20651;-85
2021/10/10 18:12:58;;;;;;;9.53;5.83;;;;;;;;;;5024884;28;20196;-87
2021/10/10 18:16:02;;;;;;;9.77;6.17;;;;;;;;;;5038005;28;20199;-85
2021/10/10 18:19:07;;;;;;;7.47;5.73;;;;;;;;;;5015759;28;20196;-87
2021/10/10 18:22:11;;;;;;;11.70;5.93;;;;;;;;;;5015256;28;20651;-86
2021/10/10 18:25:17;;;;;;;11.13;6.17;;;;;;;;;;5027850;28;20220;-86
2021/10/10 18:28:21;;;;;;;11.00;6.10;;;;;;;;;;5013776;28;20197;-87
2021/10/10 18:31:26;;;;;;;11.27;6.77;;;;;;;;;;5021324;28;20204;-86
2021/10/10 18:34:31;;;;;;;11.00;6.53;;;;;;;;;;5007664;28;20529;-87
2021/10/10 18:37:35;;;;;;;10.40;6.23;;;;;;;;;;5011997;28;20184;-87
2021/10/10 18:40:39;;;;;;;11.50;6.80;;;;;;;;;;5025425;28;20437;-86
2021/10/10 18:43:45;;;;;;;10.17;6.13;;;;;;;;;;5007099;28;20217;-86
2021/10/10 18:46:49;;;;;;;10.10;6.03;;;;;;;;;;5015107;28;20718;-87
2021/10/10 18:49:53;;;;;;;10.97;5.73;;;;;;;;;;5014971;28;20741;-86
2021/10/10 18:52:57;;;;;;;12.80;6.40;;;;;;;;;;5026044;28;20192;-86
2021/10/10 18:56:01;;;;;;;12.20;6.10;;;;;;;;;;5026004;28;20535;-86
2021/10/10 18:59:05;;;;;;;10.30;6.17;;;;;;;;;;5038164;28;20554;-86
2021/10/10 19:02:13;;;;;;;10.60;6.40;;;;;;;;;;4996591;28;20180;-87
2021/10/10 19:05:17;;;;;;;11.40;6.43;;;;;;;;;;5008737;28;20308;-86
2021/10/10 19:08:22;;;;;;;9.23;5.77;;;;;;;;;;5005675;28;20674;-86
2021/10/10 19:11:26;;;;;;;10.43;6.43;;;;;;;;;;5026227;28;20191;-86
2021/10/10 19:14:30;;;;;;;7.43;5.10;;;;;;;;;;5026257;28;20177;-86
2021/10/10 19:17:36;;;;;;;10.37;6.30;;;;;;;;;;5013888;28;20207;-86
2021/10/10 19:20:40;;;;;;;11.03;6.63;;;;;;;;;;5025424;28;20220;-86
2021/10/10 19:23:44;;;;;;;9.30;6.20;;;;;;;;;;5021628;28;20196;-86
2021/10/10 19:26:49;;;;;;;10.23;6.43;;;;;;;;;;5018388;28;20647;-86
2021/10/10 19:29:53;;;;;;;9.97;6.27;;;;;;;;;;5017821;28;20223;-86
2021/10/10 19:32:59;;;;;;;14.17;6.83;;;;;;;;;;5022912;28;20200;-86
2021/10/10 19:36:03;;;;;;;9.23;6.40;;;;;;;;;;5040777;28;20181;-86
2021/10/10 19:39:08;;;;;;;10.13;6.50;;;;;;;;;;5018053;28;20185;-86
2021/10/10 19:42:12;;;;;;;8.90;6.43;;;;;;;;;;5017656;28;20192;-86
2021/10/10 19:45:16;;;;;;;11.27;6.63;;;;;;;;;;5029116;28;20208;-86
2021/10/10 19:48:20;;;;;;;12.77;6.77;;;;;;;;;;5017147;28;20200;-86
2021/10/10 19:51:26;;;;;;;9.83;6.10;;;;;;;;;;5014768;28;20192;-86
2021/10/10 19:54:30;;;;;;;10.93;6.70;;;;;;;;;;5040332;28;20200;-86
2021/10/10 19:57:35;;;;;;;11.20;6.40;;;;;;;;;;5016736;28;20216;-86
2021/10/10 20:00:39;;;;;;;10.07;6.60;;;;;;;;;;5017446;28;20220;-85
2021/10/10 20:03:44;;;;;;;11.13;6.60;;;;;;;;;;5021106;28;20188;-86
2021/10/10 20:06:48;;;;;;;10.20;6.40;;;;;;;;;;5020969;28;20208;-85
2021/10/10 20:09:52;;;;;;;10.27;7.27;;;;;;;;;;5009466;28;20232;-87
2021/10/10 20:12:56;;;;;;;11.40;6.60;;;;;;;;;;5018544;28;20192;-87
2021/10/10 20:16:02;;;;;;;12.70;7.10;;;;;;;;;;5017666;28;20203;-86
2021/10/10 20:19:06;;;;;;;11.67;6.73;;;;;;;;;;5028507;28;20200;-86
2021/10/10 20:22:11;;;;;;;10.63;6.80;;;;;;;;;;5028571;28;20207;-86
2021/10/10 20:25:15;;;;;;;11.47;6.47;;;;;;;;;;5017373;28;20211;-86
2021/10/10 20:28:19;;;;;;;12.37;6.87;;;;;;;;;;5005143;28;20193;-87
2021/10/10 20:31:24;;;;;;;10.23;6.60;;;;;;;;;;5005793;28;20204;-87
2021/10/10 20:34:27;;;;;;;9.70;7.17;;;;;;;;;;5027777;28;20188;-87
2021/10/10 20:37:32;;;;;;;10.37;7.03;;;;;;;;;;5028601;28;20180;-86
2021/10/10 20:40:36;;;;;;;9.07;6.17;;;;;;;;;;5012982;28;20223;-86
2021/10/10 20:43:40;;;;;;;13.53;7.13;;;;;;;;;;5027707;28;20196;-87
2021/10/10 20:46:45;;;;;;;9.80;6.73;;;;;;;;;;5016580;28;20188;-86
2021/10/10 20:49:49;;;;;;;12.30;7.40;;;;;;;;;;5026831;28;20575;-86
2021/10/10 20:52:53;;;;;;;11.97;7.33;;;;;;;;;;5007921;28;20192;-87
2021/10/10 20:55:57;;;;;;;10.10;7.30;;;;;;;;;;5016778;28;20199;-87
2021/10/10 20:59:02;;;;;;;17.70;8.27;;;;;;;;;;5019524;28;20200;-87
2021/10/10 21:02:05;;;;;;;10.60;7.43;;;;;;;;;;5030055;28;20200;-87
2021/10/10 21:05:10;;;;;;;10.80;7.20;;;;;;;;;;5038459;28;20703;-87
2021/10/10 21:08:15;;;;;;;9.80;7.40;;;;;;;;;;5039455;28;20195;-86
2021/10/10 21:11:19;;;;;;;12.97;6.83;;;;;;;;;;5008591;28;20204;-86
2021/10/10 21:14:24;;;;;;;11.27;6.70;;;;;;;;;;5007991;28;20651;-87
2021/10/10 21:17:29;;;;;;;12.87;7.77;;;;;;;;;;5032369;22;20660;-86
2021/10/10 21:20:33;;;;;;;16.27;7.33;;;;;;;;;;4995459;28;20201;-86
2021/10/10 21:23:37;;;;;;;11.93;7.70;;;;;;;;;;5011121;28;20555;-86
2021/10/10 21:26:43;;;;;;;12.90;7.27;;;;;;;;;;5022230;28;20189;-86
2021/10/10 21:29:50;;;;;;;9.80;7.13;;;;;;;;;;4990830;28;20214;-86
2021/10/10 21:32:57;;;;;;;11.57;7.83;;;;;;;;;;4991989;28;20189;-86
2021/10/10 21:36:04;;;;;;;12.60;7.67;;;;;;;;;;4991361;28;20194;-86
2021/10/10 21:43:17;;;;;;;11.07;7.67;;;;;;;;;;5013943;28;20197;-86
2021/10/10 21:47:25;;;;;;;14.17;8.43;;;;;;;;;;5001679;28;20652;-86
2021/10/10 21:50:46;;;;;;;11.73;8.63;;;;;;;;;;4994884;28;20187;-86
2021/10/10 21:54:21;;;;;;;13.17;7.93;;;;;;;;;;4983097;28;20585;-86
2021/10/10 21:57:49;;;;;;;13.40;8.47;;;;;;;;;;4974354;28;20641;-86
2021/10/10 22:01:38;;;;;;;11.90;8.63;;;;;;;;;;4972962;28;20198;-86
2021/10/10 22:05:54;;;;;;;14.00;8.80;;;;;;;;;;4972080;28;20219;-86
2021/10/10 22:09:22;;;;;;;11.77;8.73;;;;;;;;;;4939773;28;20636;-86
2021/10/10 22:12:46;;;;;;;13.40;8.37;;;;;;;;;;4974420;28;20594;-86
2021/10/10 22:16:47;;;;;;;;;;;;;;;;;;;;;
2021/10/10 22:20:07;;;;;;;12.73;7.73;;;;;;;;;;4993512;28;20930;-86
2021/10/10 22:23:47;;;;;;;14.77;8.57;;;;;;;;;;4972900;28;20194;-86
2021/10/10 22:38:57;;;;;;;16.77;8.43;;;;;;;;;;4975336;28;20649;-86
2021/10/10 22:42:34;;;;;;;14.50;9.03;;;;;;;;;;4981723;28;20949;-86
2021/10/10 22:45:55;;;;;;;15.60;9.33;;;;;;;;;;4970848;28;20234;-86
2021/10/10 22:49:22;;;;;;;15.23;9.23;;;;;;;;;;4948581;28;20649;-86
2021/10/10 22:52:27;;;;;;;11.77;8.47;;;;;;;;;;4952114;28;20191;-86
2021/10/10 22:56:19;;;;;;;13.47;9.53;;;;;;;;;;4969147;28;20206;-86
2021/10/10 23:03:35;;;;;;;15.67;8.50;;;;;;;;;;4977958;28;20610;-86
2021/10/10 23:06:55;;;;;;;14.63;8.07;;;;;;;;;;4952019;28;20625;-86
2021/10/10 23:10:23;;;;;;;15.23;8.53;;;;;;;;;;4977382;28;20598;-87
2021/10/10 23:13:38;;;;;;;12.63;8.80;;;;;;;;;;4966441;28;20598;-85
2021/10/10 23:20:58;;;;;;;15.10;10.13;;;;;;;;;;4967049;28;20586;-86
2021/10/10 23:24:15;;;;;;;14.67;8.90;;;;;;;;;;4945036;28;20562;-86
2021/10/10 23:27:36;;;;;;;16.13;9.23;;;;;;;;;;4955694;28;20637;-86
2021/10/10 23:30:56;;;;;;;16.83;8.70;;;;;;;;;;4953010;28;21159;-86
2021/10/10 23:34:20;;;;;;;11.93;8.80;;;;;;;;;;4967149;28;20621;-85
2021/10/10 23:37:36;;;;;;;14.90;9.37;;;;;;;;;;4976871;28;20645;-85
2021/10/10 23:40:48;;;;;;;17.47;10.40;;;;;;;;;;4966809;28;20582;-86
2021/10/10 23:44:25;;;;;;;16.13;10.33;;;;;;;;;;4965888;28;20594;-86
2021/10/10 23:47:59;;;;;;;16.03;9.93;;;;;;;;;;4952172;28;20666;-85
2021/10/10 23:51:31;;;;;;;14.60;10.17;;;;;;;;;;4970170;28;21139;-85
2021/10/10 23:55:01;;;;;;;13.60;9.57;;;;;;;;;;4976560;28;20950;-86
2021/10/10 23:58:36;;;;;;;14.07;10.20;;;;;;;;;;4996871;28;20637;-85
